• Join FlightAware (Why Join?)
  • Login
  • US Flag 
12:53AM EDT


 

Airport Tracker/Info


-or-


 

Live Flight TrackerFlight Track Log ✈ FSR411 ✈ 02-Jun-2013 ✈ KPDK - KCMI

Flight Track Log - Related Links

Times and Time Zones

All times are in EDT time to prevent confusion due to time zone crossing. See the FSR411 flight status page for this flight to view local times or setup timezone preferences in your user account.

Time Position Orientation Groundspeed Altitude Reporting Facility
EDT Latitude Longitude Course Direction KTS MPH feet Rate Location/Type
02:05PM 33.8500 -84.3167 327° Northwest 170 196 2,100  Level Atlanta TRACON
02:06PM 33.8833 -84.3667 309° West 218 251 5,000 2,400 Climbing Atlanta TRACON
02:07PM 33.9500 -84.4000 337° Northwest 251 289 7,000 1,380 Climbing Atlanta TRACON
02:08PM 34.0167 -84.4333 337° Northwest 297 342 7,800 1,080 Climbing Atlanta TRACON
02:08PM 34.0608 -84.4275 North 319 367 8,700 840 Climbing Atlanta Center
02:09PM 34.1547 -84.4128 North 319 367 9,100 1,680 Climbing Atlanta Center
02:10PM 34.2422 -84.4408 345° North 305 351 12,100 2,880 Climbing Atlanta Center
02:11PM 34.3537 -84.6963 327° Northwest  Level FlightAware Approximate
02:11PM 34.3319 -84.4917 335° Northwest 343 395 14,900  Level Atlanta Center
02:12PM 34.3961 -84.5900 308° West 358 412 16,200 1,140 Climbing Atlanta Center
02:13PM 34.4647 -84.6864 311° West 369 425 17,200 1,200 Climbing Atlanta Center
02:14PM 34.5328 -84.7903 309° West 384 442 18,600 2,040 Climbing Atlanta Center
02:15PM 34.6117 -84.8817 316° Northwest 399 459 21,300 2,220 Climbing Atlanta Center
02:16PM 34.7008 -84.9508 327° Northwest 399 459 23,100 2,160 Climbing Atlanta Center
02:17PM 34.8025 -85.0303 327° Northwest 420 483 25,700 2,220 Climbing Atlanta Center
02:18PM 34.9042 -85.1100 327° Northwest 427 491 27,600 1,680 Climbing Atlanta Center
02:19PM 35.0139 -85.1875 330° Northwest 438 504 29,100 1,200 Climbing Atlanta Center
02:20PM 35.1261 -85.2500 336° Northwest 438 504 30,000 420 Climbing Atlanta Center
02:21PM 35.2381 -85.3128 335° Northwest 438 504 30,000  Level Atlanta Center
02:22PM 35.3753 -85.3917 335° Northwest 431 496 30,000 180 Level Memphis Center
02:23PM 35.4883 -85.4564 335° Northwest 431 496 30,400 1,200 Climbing Memphis Center
02:24PM 35.5931 -85.5217 333° Northwest 431 496 32,400 1,920 Climbing Memphis Center
02:25PM 35.6997 -85.5819 335° Northwest 431 496 34,300 1,740 Climbing Memphis Center
02:26PM 35.8039 -85.6397 336° Northwest 420 483 35,900 1,560 Climbing Memphis Center
02:27PM 35.9064 -85.7031 333° Northwest 415 478 37,500 1,500 Climbing Memphis Center
02:28PM 36.0089 -85.7639 334° Northwest 410 472 39,000 1,200 Climbing Memphis Center
02:29PM 36.1069 -85.8200 335° Northwest 404 465 39,900 480 Climbing Memphis Center
02:30PM 36.1803 -85.8619 335° Northwest 400 460 40,000  Climbing Indianapolis Center
02:31PM 36.3092 -85.9375 335° Northwest 418 481 40,000  Level Memphis Center
02:32PM 36.4164 -86.0014 334° Northwest 435 501 40,000  Level Indianapolis Center
02:33PM 36.5278 -86.0675 335° Northwest 440 506 40,000  Level Indianapolis Center
02:34PM 36.6392 -86.1342 334° Northwest 443 510 40,000  Level Memphis Center
02:35PM 36.7456 -86.1986 334° Northwest 429 494 40,000  Level Memphis Center
02:38PM 36.9628 -86.3272 335° Northwest 428 493 40,000  Level Indianapolis Center
02:39PM 37.0883 -86.4028 334° Northwest 427 491 40,000  Level Indianapolis Center
02:40PM 37.1983 -86.4697 334° Northwest 434 499 40,000  Level Indianapolis Center
02:41PM 37.3083 -86.5367 334° Northwest 435 501 40,000  Level Indianapolis Center
02:42PM 37.4197 -86.6056 334° Northwest 440 506 40,000  Level Indianapolis Center
02:43PM 37.5322 -86.6736 334° Northwest 445 512 40,000  Level Indianapolis Center
02:44PM 37.6369 -86.7378 334° Northwest 439 505 40,000  Level Indianapolis Center
02:45PM 37.7689 -86.8203 334° Northwest 438 504 40,000 -300 Level Indianapolis Center
02:46PM 37.8778 -86.8878 334° Northwest 432 497 39,400 -1,440 Descending Indianapolis Center
02:47PM 37.9828 -86.9547 333° Northwest 418 481 37,100 -2,220 Descending Indianapolis Center
02:48PM 38.0831 -87.0178 334° Northwest 401 461 34,900 -2,220 Descending Indianapolis Center
02:49PM 38.1869 -87.0839 333° Northwest 410 472 32,600 -2,220 Descending Indianapolis Center
02:50PM 38.3000 -87.1483 336° Northwest 424 488 30,400 -1,920 Descending Indianapolis Center
02:51PM 38.4172 -87.2272 332° Northwest 451 519 28,700 -1,500 Descending Indianapolis Center
02:52PM 38.5311 -87.2989 334° Northwest 455 524 27,300 -1,440 Descending Indianapolis Center
02:53PM 38.6456 -87.3722 333° Northwest 455 524 25,800 -1,500 Descending Indianapolis Center
02:54PM 38.7578 -87.4436 334° Northwest 451 519 24,300 -1,500 Descending Indianapolis Center
02:55PM 38.8664 -87.5131 334° Northwest 437 503 22,800 -1,620 Descending Indianapolis Center
02:56PM 38.9725 -87.5817 333° Northwest 428 493 21,000 -1,740 Descending Indianapolis Center
02:57PM 39.0767 -87.6464 334° Northwest 417 480 19,300 -1,800 Descending Indianapolis Center
02:58PM 39.1978 -87.7253 333° Northwest 407 468 17,300 -1,860 Descending Indianapolis Center
02:59PM 39.2981 -87.7897 334° Northwest 404 465 15,500 -1,860 Descending Indianapolis Center
03:00PM 39.3936 -87.8517 333° Northwest 394 453 13,600 -1,680 Descending Indianapolis Center
03:01PM 39.4828 -87.9083 334° Northwest 372 428 12,100 -1,320 Descending Indianapolis Center
03:02PM 39.5683 -87.9669 332° Northwest 358 412 11,000 -1,260 Descending Indianapolis Center
03:03PM 39.6561 -87.9708 358° North 331 381 9,600 -1,800 Descending Indianapolis Center
03:04PM 39.7339 -87.9811 354° North 303 349 7,400 -2,040 Descending Indianapolis Center
03:05PM 39.8131 -88.0289 335° Northwest 291 335 5,400 -1,980 Descending Indianapolis Center
03:08PM 39.9440 -88.2038 330° Northwest  Level FlightAware Approximate
03:15PM 40.0333 -88.2667 333° Northwest  Level FlightAware Approximate
03:16PM 40.0388 -88.2778 333° Northwest  Level Estimated
03:17PM 40.0388 -88.2778 333° Northwest  Level Estimated
03:18PM 40.0388 -88.2778 333° Northwest  Level Estimated
03:19PM 40.0388 -88.2778 333° Northwest  Level Estimated
03:20PM 40.0388 -88.2778 333° Northwest  Level Estimated